Time;durP1;ratioP1;P1;durP2;ratioP2;P2;SDS_P1;SDS_P2;PMS_P1;PMS_P2;Temp;Humidity;BMP_temperature;BMP_pressure;BME280_temperature;BME280_humidity;BME280_pressure;Samples;Min_cycle;Max_cycle;Signal;HPM_P1;HPM_P2
2023/06/17 00:01:16;;;;;;;7.37;5.30;;;;;;;-143.84;76.14;45090.97;5082589;28;20527;-59
2023/06/17 00:03:43;;;;;;;6.30;5.67;;;;;;;-143.84;76.45;45083.34;5082869;28;20451;-58
2023/06/17 00:06:12;;;;;;;8.30;4.87;;;;;;;-143.84;76.69;45081.44;5082651;28;20445;-58
2023/06/17 00:08:39;;;;;;;6.10;5.53;;;;;;;-143.84;77.10;45077.63;5081869;28;20998;-58
2023/06/17 00:11:06;;;;;;;7.40;6.07;;;;;;;-143.84;76.95;45111.91;5082360;28;20476;-58
2023/06/17 00:13:33;;;;;;;6.10;5.50;;;;;;;-143.84;76.78;45094.78;5082586;28;20444;-58
2023/06/17 00:16:04;;;;;;;7.03;5.60;;;;;;;-143.84;77.02;45111.91;5081762;28;20484;-58
2023/06/17 00:18:32;;;;;;;8.70;5.30;;;;;;;-143.84;77.16;45079.53;5082179;28;20463;-58
2023/06/17 00:20:59;;;;;;;9.53;4.83;;;;;;;-143.84;77.35;45096.66;5082086;28;20484;-58
2023/06/17 00:23:28;;;;;;;6.20;5.37;;;;;;;-143.84;77.25;45077.63;5082408;28;20441;-58
2023/06/17 00:25:55;;;;;;;7.27;5.43;;;;;;;-143.84;77.31;45075.72;5081062;28;20533;-58
2023/06/17 00:28:22;;;;;;;6.07;5.43;;;;;;;-143.84;76.74;45083.34;5080754;28;20448;-58
2023/06/17 00:30:49;;;;;;;6.57;5.97;;;;;;;-143.84;76.63;45075.72;5081565;28;20464;-58
2023/06/17 00:33:16;;;;;;;5.23;4.83;;;;;;;-143.84;76.58;45073.81;5082847;28;20883;-58
2023/06/17 00:35:43;;;;;;;5.80;5.20;;;;;;;-143.84;76.57;45102.38;5084182;28;20448;-58
2023/06/17 00:38:11;;;;;;;4.90;4.20;;;;;;;-143.84;76.54;45075.72;5084884;28;20444;-58
2023/06/17 00:40:39;;;;;;;6.57;5.77;;;;;;;-143.84;75.92;45085.25;5087472;28;20445;-58
2023/06/17 00:43:06;;;;;;;5.10;4.80;;;;;;;-143.84;75.69;45089.06;5087481;28;20448;-57
2023/06/17 00:45:38;;;;;;;5.07;4.57;;;;;;;-143.84;75.87;45113.81;5088184;28;20436;-58
2023/06/17 00:48:07;;;;;;;5.10;4.70;;;;;;;-143.84;75.55;45094.78;5088454;28;20961;-58
2023/06/17 00:50:36;;;;;;;6.03;5.27;;;;;;;-143.84;75.53;45077.63;5088615;28;20488;-58
2023/06/17 00:53:04;;;;;;;5.53;5.13;;;;;;;-143.84;74.90;45113.81;5088494;28;20443;-58
2023/06/17 00:55:35;;;;;;;6.53;5.27;;;;;;;-143.84;74.40;45083.34;5088558;28;20444;-58
2023/06/17 00:58:03;;;;;;;6.37;5.20;;;;;;;-143.84;74.06;45077.63;5088537;28;20432;-58
2023/06/17 01:00:31;;;;;;;5.50;4.80;;;;;;;-143.84;73.84;45102.38;5088247;28;20456;-58
2023/06/17 01:02:58;;;;;;;5.07;4.57;;;;;;;-143.84;73.72;45104.28;5091937;28;20440;-57
2023/06/17 01:05:27;;;;;;;12.40;5.37;;;;;;;-143.84;74.15;45087.16;5092102;28;20444;-58
2023/06/17 01:08:08;;;;;;;5.80;5.37;;;;;;;-143.84;74.58;45090.97;5092387;28;20444;-58
2023/06/17 01:10:43;;;;;;;6.30;5.70;;;;;;;-143.84;75.09;45075.72;5091872;28;21005;-58
2023/06/17 01:13:14;;;;;;;14.17;6.00;;;;;;;-143.84;76.38;45083.34;5092136;28;20922;-58
2023/06/17 01:15:42;;;;;;;7.73;5.60;;;;;;;-143.84;76.30;45071.91;5091620;28;20520;-57
2023/06/17 01:18:11;;;;;;;13.90;7.10;;;;;;;-143.84;77.27;45081.44;5092082;28;20436;-57
2023/06/17 01:20:39;;;;;;;12.20;7.20;;;;;;;-143.84;78.51;45068.13;5091772;28;20482;-57
2023/06/17 01:23:07;;;;;;;17.00;7.43;;;;;;;-143.84;79.51;45075.72;5091783;28;20464;-57
2023/06/17 01:25:37;;;;;;;9.90;6.50;;;;;;;-143.84;79.57;45075.72;5091718;28;21022;-58
2023/06/17 01:28:16;;;;;;;9.50;6.53;;;;;;;-143.84;79.96;45071.91;5091692;28;20457;-58
2023/06/17 01:30:44;;;;;;;7.93;7.10;;;;;;;-143.84;79.82;45054.78;5091870;28;20480;-58
2023/06/17 01:33:13;;;;;;;7.03;6.23;;;;;;;-143.84;78.94;45070.00;5091665;28;20532;-58
2023/06/17 01:35:46;;;;;;;6.83;6.13;;;;;;;-143.84;78.91;45090.97;5091343;28;20535;-58
2023/06/17 01:38:20;;;;;;;9.87;5.83;;;;;;;-143.84;78.94;45075.72;5091749;28;20982;-58
2023/06/17 01:40:55;;;;;;;11.63;6.00;;;;;;;-143.84;79.08;45092.88;5091572;28;20547;-57
2023/06/17 01:43:25;;;;;;;8.27;5.50;;;;;;;-143.84;79.33;45113.81;5091352;28;20527;-58
2023/06/17 01:45:54;;;;;;;7.43;6.27;;;;;;;-143.84;79.60;45098.56;5091356;28;20437;-57
2023/06/17 01:48:21;;;;;;;16.00;7.80;;;;;;;-143.84;80.23;45083.34;5091403;28;20436;-58
2023/06/17 01:50:48;;;;;;;8.90;7.10;;;;;;;-143.84;80.59;45094.78;5091707;28;20480;-58
2023/06/17 01:53:15;;;;;;;7.03;6.33;;;;;;;-143.84;80.76;45077.63;5091222;28;20448;-58
2023/06/17 01:55:42;;;;;;;7.17;6.30;;;;;;;-143.84;80.73;45083.34;5091128;28;20489;-57
2023/06/17 01:58:11;;;;;;;7.63;6.30;;;;;;;-143.84;80.52;45094.78;5091026;28;20440;-57
2023/06/17 02:00:38;;;;;;;9.07;6.53;;;;;;;-143.84;80.16;45094.78;5090912;28;20447;-57
2023/06/17 02:03:05;;;;;;;8.80;6.40;;;;;;;-143.84;80.45;45073.81;5091446;28;20429;-57
2023/06/17 02:05:32;;;;;;;9.90;6.77;;;;;;;-143.84;80.33;45098.56;5091071;28;20448;-57
2023/06/17 02:08:00;;;;;;;11.87;6.80;;;;;;;-143.84;80.52;45098.56;5090863;28;20444;-57
2023/06/17 02:10:27;;;;;;;8.00;7.30;;;;;;;-143.84;80.45;45108.09;5090923;28;20480;-57
2023/06/17 02:12:54;;;;;;;7.17;5.97;;;;;;;-143.84;81.22;45104.28;5089693;28;20445;-58
2023/06/17 02:15:23;;;;;;;10.13;6.50;;;;;;;-143.84;81.53;45073.81;5090761;28;20489;-58
2023/06/17 02:17:51;;;;;;;8.43;6.60;;;;;;;-143.84;81.73;45108.09;5090890;28;20463;-58
2023/06/17 02:20:19;;;;;;;9.33;6.07;;;;;;;-143.84;81.65;45068.13;5090865;28;20441;-58
2023/06/17 02:22:46;;;;;;;11.00;5.90;;;;;;;-143.84;81.41;45079.53;5090834;28;20446;-57
2023/06/17 02:25:13;;;;;;;8.90;5.53;;;;;;;-143.84;80.56;45083.34;5090525;28;20497;-58
2023/06/17 02:27:40;;;;;;;8.40;5.53;;;;;;;-143.84;80.61;45083.34;5090576;28;20840;-58
2023/06/17 02:30:10;;;;;;;5.40;5.00;;;;;;;-143.84;80.53;45098.56;5090437;28;20440;-57
2023/06/17 02:32:38;;;;;;;6.20;5.60;;;;;;;-143.84;80.47;45085.25;5090437;28;20498;-58
2023/06/17 02:35:07;;;;;;;8.13;5.57;;;;;;;-143.84;80.68;45090.97;5090665;28;20445;-58
2023/06/17 02:37:34;;;;;;;11.73;6.20;;;;;;;-143.84;80.43;45085.25;5090422;28;20452;-58
2023/06/17 02:40:02;;;;;;;10.67;6.20;;;;;;;-143.84;80.45;45079.53;5090327;28;20429;-57
2023/06/17 02:42:29;;;;;;;6.37;5.80;;;;;;;-143.84;80.16;45079.53;5090396;28;20444;-58
2023/06/17 02:44:56;;;;;;;5.53;5.03;;;;;;;-143.84;79.82;45064.31;5090487;28;20444;-58
2023/06/17 02:47:24;;;;;;;6.43;5.57;;;;;;;-143.84;79.30;45056.69;5090200;28;20445;-58
2023/06/17 02:49:52;;;;;;;7.00;4.97;;;;;;;-143.84;78.73;45092.88;5090160;28;20440;-58
2023/06/17 02:52:21;;;;;;;5.30;4.90;;;;;;;-143.84;78.23;45087.16;5090357;28;20476;-58
2023/06/17 02:54:48;;;;;;;6.87;5.40;;;;;;;-143.84;78.46;45092.88;5090249;28;20437;-58
2023/06/17 02:57:15;;;;;;;4.97;4.60;;;;;;;-143.84;78.23;45073.81;5089694;28;20448;-58
2023/06/17 02:59:42;;;;;;;5.10;4.60;;;;;;;-143.84;77.76;45089.06;5090008;28;20436;-58
2023/06/17 03:02:10;;;;;;;5.57;5.10;;;;;;;-143.84;77.45;45089.06;5089888;28;20452;-58
2023/06/17 03:04:37;;;;;;;5.50;4.97;;;;;;;-143.84;77.15;45081.44;5089995;28;20437;-58
2023/06/17 03:07:06;;;;;;;4.47;4.17;;;;;;;-143.84;76.34;45064.31;5089936;28;20463;-58
2023/06/17 03:09:33;;;;;;;9.17;5.17;;;;;;;-143.84;76.06;45090.97;5090170;28;20999;-58
2023/06/17 03:12:02;;;;;;;7.53;4.90;;;;;;;-143.84;75.39;45096.66;5089860;28;20545;-58
2023/06/17 03:14:29;;;;;;;5.30;4.80;;;;;;;-143.84;75.58;45094.78;5089736;28;20441;-57
2023/06/17 03:16:57;;;;;;;4.63;4.33;;;;;;;-143.84;75.18;45113.81;5089516;28;20488;-58
2023/06/17 03:19:24;;;;;;;6.53;5.10;;;;;;;-143.84;75.35;45096.66;5089702;28;20445;-57
2023/06/17 03:21:52;;;;;;;5.33;4.93;;;;;;;-143.84;75.19;45096.66;5089680;28;20501;-58
2023/06/17 03:24:21;;;;;;;10.00;4.60;;;;;;;-143.84;75.07;45110.00;5088929;28;20472;-58
2023/06/17 03:26:48;;;;;;;5.57;5.07;;;;;;;-143.84;74.74;45098.56;5090051;28;20441;-58
2023/06/17 03:29:16;;;;;;;4.50;4.20;;;;;;;-143.84;74.95;45098.56;5089316;28;20437;-58
2023/06/17 03:31:43;;;;;;;6.93;5.23;;;;;;;-143.84;74.64;45094.78;5088799;28;20989;-58
2023/06/17 03:34:10;;;;;;;7.57;4.90;;;;;;;-143.84;74.50;45100.47;5088285;28;20429;-58
2023/06/17 03:36:39;;;;;;;5.33;4.83;;;;;;;-143.84;74.36;45094.78;5088480;28;20441;-58
2023/06/17 03:39:06;;;;;;;5.13;4.60;;;;;;;-143.84;74.21;45089.06;5088521;28;20433;-58
2023/06/17 03:41:35;;;;;;;5.27;4.57;;;;;;;-143.84;74.33;45108.09;5088556;28;20434;-57
2023/06/17 03:44:02;;;;;;;5.73;4.23;;;;;;;-143.84;74.19;45087.16;5088976;28;20449;-58
2023/06/17 03:46:29;;;;;;;5.00;4.60;;;;;;;-143.84;74.61;45081.44;5089170;28;20445;-58
2023/06/17 03:48:57;;;;;;;10.43;4.93;;;;;;;-143.84;74.84;45066.22;5089399;28;20445;-58
2023/06/17 03:51:24;;;;;;;4.13;3.87;;;;;;;-143.84;74.67;45081.44;5089524;28;20513;-57
2023/06/17 03:53:51;;;;;;;4.40;3.80;;;;;;;-143.84;74.57;45081.44;5089438;28;20452;-58
2023/06/17 03:56:18;;;;;;;7.67;4.60;;;;;;;-143.84;74.30;45092.88;5089063;28;20451;-58
2023/06/17 03:58:47;;;;;;;5.57;4.97;;;;;;;-143.84;73.72;45085.25;5089192;28;20440;-58
2023/06/17 04:01:14;;;;;;;8.40;4.60;;;;;;;-143.84;73.64;45110.00;5089097;28;21146;-58
2023/06/17 04:03:44;;;;;;;4.40;4.03;;;;;;;-143.84;73.13;45092.88;5088825;28;20437;-57
2023/06/17 04:06:12;;;;;;;6.87;4.23;;;;;;;-143.84;72.82;45090.97;5088953;28;20968;-58
2023/06/17 04:08:39;;;;;;;4.70;4.30;;;;;;;-143.84;72.31;45079.53;5088899;28;20441;-58
2023/06/17 04:11:06;;;;;;;8.03;4.03;;;;;;;-143.84;71.57;45100.47;5088855;28;20478;-58
2023/06/17 04:13:33;;;;;;;8.10;3.80;;;;;;;-143.84;71.23;45090.97;5089023;28;20444;-58
2023/06/17 04:16:03;;;;;;;4.97;4.20;;;;;;;-143.84;71.20;45102.38;5088608;28;20485;-58
2023/06/17 04:18:30;;;;;;;4.60;4.10;;;;;;;-143.84;69.65;45054.78;5089086;28;20493;-57
2023/06/17 04:20:57;;;;;;;4.53;4.23;;;;;;;-143.84;70.03;45090.97;5088796;28;20438;-58
2023/06/17 04:23:24;;;;;;;6.00;4.30;;;;;;;-143.84;69.66;45073.81;5088721;28;20437;-58
2023/06/17 04:25:51;;;;;;;4.47;3.93;;;;;;;-143.84;69.12;45066.22;5089043;28;20567;-58
2023/06/17 04:28:19;;;;;;;8.50;3.90;;;;;;;-143.84;68.18;45113.81;5088622;28;20438;-58
2023/06/17 04:30:47;;;;;;;7.40;4.30;;;;;;;-143.84;66.88;45087.16;5088675;28;20528;-58
2023/06/17 04:33:16;;;;;;;6.80;4.13;;;;;;;-143.84;65.70;45079.53;5088964;28;20491;-58
2023/06/17 04:35:44;;;;;;;4.10;3.80;;;;;;;-143.84;65.27;45079.53;5089188;28;20869;-58
2023/06/17 04:38:12;;;;;;;4.40;4.07;;;;;;;-143.84;63.92;45081.44;5092736;28;20449;-58
2023/06/17 04:40:39;;;;;;;4.83;4.30;;;;;;;-143.84;64.45;45089.06;5092669;28;20511;-58
2023/06/17 04:43:06;;;;;;;5.70;3.70;;;;;;;-143.84;64.33;45090.97;5092847;28;20434;-58
2023/06/17 04:45:35;;;;;;;6.90;4.00;;;;;;;-143.84;64.64;45070.00;5092483;28;20446;-58
2023/06/17 04:48:05;;;;;;;12.47;4.63;;;;;;;-143.84;64.23;45089.06;5092582;28;20483;-58
2023/06/17 04:50:35;;;;;;;4.00;3.70;;;;;;;-143.84;62.97;45066.22;5092878;28;20447;-58
2023/06/17 04:53:03;;;;;;;4.60;3.83;;;;;;;-143.84;62.49;45070.00;5092510;28;20486;-58
2023/06/17 04:55:35;;;;;;;5.50;3.90;;;;;;;-143.84;63.51;45073.81;5092278;28;20455;-58
2023/06/17 04:58:02;;;;;;;4.23;3.83;;;;;;;-143.84;61.71;45073.81;5092274;28;21043;-58
2023/06/17 05:00:29;;;;;;;5.63;4.00;;;;;;;-143.84;61.12;45062.41;5092146;28;20446;-58
2023/06/17 05:02:56;;;;;;;7.63;4.00;;;;;;;-143.84;61.76;45033.84;5091998;28;20444;-58
2023/06/17 05:05:23;;;;;;;9.40;3.93;;;;;;;-143.84;61.18;45056.69;5092284;28;20789;-59
2023/06/17 05:07:52;;;;;;;15.37;5.07;;;;;;;-143.84;61.15;45033.84;5091960;28;20497;-58
2023/06/17 05:10:19;;;;;;;4.37;4.07;;;;;;;-143.84;58.95;45064.31;5092147;28;20501;-58
2023/06/17 05:12:46;;;;;;;4.70;4.30;;;;;;;-143.84;59.52;45066.22;5091737;28;20481;-58
2023/06/17 05:15:14;;;;;;;9.03;4.37;;;;;;;-143.84;58.36;45079.53;5091667;28;20466;-57
2023/06/17 05:17:41;;;;;;;5.67;4.00;;;;;;;-143.84;59.21;45050.97;5091790;28;20441;-57
2023/06/17 05:20:09;;;;;;;7.30;3.93;;;;;;;-143.84;59.18;45045.25;5092076;28;21011;-58
2023/06/17 05:22:36;;;;;;;3.93;3.17;;;;;;;-143.84;58.56;45041.44;5091778;28;20439;-57
2023/06/17 05:25:06;;;;;;;5.70;4.10;;;;;;;-143.84;59.05;45054.78;5091850;28;20435;-57
2023/06/17 05:27:33;;;;;;;7.67;3.60;;;;;;;-143.84;58.24;45033.84;5092003;28;20456;-58
2023/06/17 05:30:00;;;;;;;4.57;4.17;;;;;;;-143.84;58.47;45047.16;5091582;28;20458;-58
2023/06/17 05:32:27;;;;;;;4.37;4.07;;;;;;;-143.84;57.99;45039.53;5091468;28;20482;-57
2023/06/17 05:34:54;;;;;;;4.60;3.67;;;;;;;-143.84;57.61;45030.03;5091321;28;20444;-57
2023/06/17 05:37:21;;;;;;;4.03;3.50;;;;;;;-143.84;55.05;45045.25;5091443;28;21017;-57
2023/06/17 05:39:49;;;;;;;643.43;109.47;;;;;;;-143.84;55.75;45003.38;5091750;28;20445;-58
2023/06/17 05:42:17;;;;;;;6.03;4.40;;;;;;;-143.84;53.17;45033.84;5091725;28;20463;-59
2023/06/17 05:44:44;;;;;;;5.10;3.27;;;;;;;-143.84;51.07;45033.84;5091362;28;20428;-58
2023/06/17 05:47:11;;;;;;;9.70;4.03;;;;;;;-143.84;51.71;45039.53;5091140;28;20452;-58
2023/06/17 05:49:39;;;;;;;9.40;4.03;;;;;;;-143.84;50.59;45020.50;5091257;28;20440;-58
2023/06/17 05:52:07;;;;;;;10.23;3.43;;;;;;;-143.84;50.31;45024.31;5091373;28;20480;-58
2023/06/17 05:54:34;;;;;;;5.53;3.40;;;;;;;-143.84;47.71;45026.22;5091396;28;20532;-59
2023/06/17 05:57:01;;;;;;;10.00;4.37;;;;;;;-143.84;48.03;44988.13;5077732;28;20466;-59
2023/06/17 05:59:30;;;;;;;10.13;3.33;;;;;;;-143.84;47.76;44988.13;5071013;28;20439;-58
2023/06/17 06:01:57;;;;;;;3.87;3.57;;;;;;;-143.84;47.88;45014.78;5074489;28;20529;-59
2023/06/17 06:04:24;;;;;;;5.10;3.63;;;;;;;-143.84;46.89;44999.56;5090980;28;20543;-59
2023/06/17 06:06:51;;;;;;;4.10;3.10;;;;;;;-143.84;46.55;44993.84;5091169;28;20440;-58
2023/06/17 06:09:18;;;;;;;5.80;3.50;;;;;;;-143.84;46.24;44986.22;5091019;28;20498;-58
2023/06/17 06:11:46;;;;;;;7.50;3.03;;;;;;;-143.84;46.15;44993.84;5091040;28;20514;-59
2023/06/17 06:14:13;;;;;;;9.90;3.00;;;;;;;-143.84;44.84;44995.75;5090946;28;20486;-58
2023/06/17 06:16:41;;;;;;;11.50;3.47;;;;;;;-143.84;45.99;45003.38;5090575;28;20479;-58
2023/06/17 06:19:08;;;;;;;7.63;3.23;;;;;;;-143.84;45.45;44988.13;5090575;28;20452;-59
2023/06/17 06:21:35;;;;;;;7.87;3.53;;;;;;;-143.84;46.12;45003.38;5090780;28;20436;-59
2023/06/17 06:24:03;;;;;;;8.87;3.57;;;;;;;-143.84;45.29;44972.91;5090596;28;20444;-59
2023/06/17 06:26:30;;;;;;;6.17;3.70;;;;;;;-143.84;44.95;44993.84;5090496;28;20455;-58
2023/06/17 06:28:57;;;;;;;8.07;4.90;;;;;;;-143.84;44.65;44988.13;5090803;28;20454;-59
2023/06/17 06:31:24;;;;;;;9.60;3.23;;;;;;;-143.84;45.01;44993.84;5090507;28;20441;-59
2023/06/17 06:33:53;;;;;;;10.50;4.10;;;;;;;-143.84;44.35;44972.91;5090449;28;20443;-59
2023/06/17 06:36:20;;;;;;;6.80;3.07;;;;;;;-143.84;43.87;44974.81;5090387;28;20470;-59
2023/06/17 06:38:47;;;;;;;7.80;3.73;;;;;;;-143.84;43.45;44967.19;5090522;28;20448;-59
2023/06/17 06:41:14;;;;;;;4.80;3.70;;;;;;;-143.84;42.81;44991.94;5090367;28;20444;-59
2023/06/17 06:43:41;;;;;;;4.33;3.10;;;;;;;-143.84;43.57;44976.72;5090321;28;20443;-59
2023/06/17 06:46:08;;;;;;;7.00;3.73;;;;;;;-143.84;43.52;44953.88;5090333;28;20432;-59
2023/06/17 06:48:35;;;;;;;8.80;3.80;;;;;;;-143.84;42.47;44938.63;5090144;28;20502;-59
2023/06/17 06:51:04;;;;;;;12.47;3.57;;;;;;;-143.84;42.18;44942.44;5090249;28;20974;-59
2023/06/17 06:53:31;;;;;;;6.73;3.60;;;;;;;-143.84;41.69;44944.34;5090016;28;21009;-59
2023/06/17 06:55:58;;;;;;;11.90;3.70;;;;;;;-143.84;41.42;44940.53;5089970;28;20424;-59
2023/06/17 06:58:25;;;;;;;9.73;4.10;;;;;;;-143.84;40.49;44915.78;5089639;28;20432;-59
2023/06/17 07:00:53;;;;;;;8.90;3.70;;;;;;;-143.84;40.48;44944.34;5089574;28;20460;-59
2023/06/17 07:03:20;;;;;;;5.50;3.60;;;;;;;-143.84;40.18;44925.31;5089894;28;20439;-59
2023/06/17 07:05:47;;;;;;;9.20;3.83;;;;;;;-143.84;41.09;44934.81;5089790;28;20513;-59
2023/06/17 07:08:15;;;;;;;14.93;4.00;;;;;;;-143.84;40.45;44931.00;5089645;28;20433;-59
2023/06/17 07:10:42;;;;;;;6.60;3.73;;;;;;;-143.84;40.52;44948.16;5089753;28;20855;-59
2023/06/17 07:13:10;;;;;;;9.20;3.77;;;;;;;-143.84;41.10;44932.91;5089812;28;20476;-59
2023/06/17 07:15:37;;;;;;;7.73;4.00;;;;;;;-143.84;40.99;44927.19;5089387;28;20487;-59
2023/06/17 07:18:04;;;;;;;14.00;3.63;;;;;;;-143.84;40.46;44915.78;5101023;28;20517;-59
2023/06/17 07:20:31;;;;;;;12.47;8.70;;;;;;;-143.84;41.00;44908.16;5110189;28;20522;-59
2023/06/17 07:22:58;;;;;;;7.67;3.83;;;;;;;-143.84;40.66;44908.16;5110015;28;20439;-59
2023/06/17 07:25:27;;;;;;;5.97;3.77;;;;;;;-143.84;40.41;44925.31;5109715;28;20432;-59
2023/06/17 07:27:56;;;;;;;11.50;7.13;;;;;;;-143.84;40.10;44898.66;5110064;28;20504;-59
2023/06/17 07:30:24;;;;;;;10.33;4.30;;;;;;;-143.84;38.95;44931.00;5109935;28;20845;-59
2023/06/17 07:32:51;;;;;;;26.17;4.67;;;;;;;-143.84;39.15;44896.75;5109668;28;20467;-59
2023/06/17 07:35:18;;;;;;;18.87;3.97;;;;;;;-143.84;38.69;44925.31;5109625;28;20493;-59
2023/06/17 07:37:45;;;;;;;9.13;3.80;;;;;;;-143.84;38.44;44929.09;5109645;28;20427;-59
2023/06/17 07:40:13;;;;;;;15.57;4.13;;;;;;;-143.84;38.81;44950.06;5109614;28;20435;-59
2023/06/17 07:42:42;;;;;;;10.77;3.80;;;;;;;-143.84;38.63;44971.00;5109541;28;20436;-59
2023/06/17 07:45:10;;;;;;;10.03;3.87;;;;;;;-143.84;39.60;44961.47;5109521;28;20447;-59
2023/06/17 07:47:37;;;;;;;6.20;3.70;;;;;;;-143.84;39.58;44917.69;5109651;28;20432;-59
2023/06/17 07:50:05;;;;;;;9.33;3.10;;;;;;;-143.84;40.18;44946.25;5109540;28;20505;-59
2023/06/17 07:52:35;;;;;;;11.07;4.00;;;;;;;-143.84;41.02;44950.06;5109698;28;20503;-59
2023/06/17 07:55:02;;;;;;;7.73;4.47;;;;;;;-143.84;41.53;44951.97;5109437;28;20436;-59
2023/06/17 07:57:30;;;;;;;6.77;4.00;;;;;;;-143.84;42.54;44961.47;5109431;28;20439;-59
2023/06/17 07:59:58;;;;;;;6.47;4.00;;;;;;;-143.84;42.85;44961.47;5109445;28;21139;-59
2023/06/17 08:02:25;;;;;;;7.40;4.40;;;;;;;-143.84;43.12;44942.44;5109575;28;20496;-59
2023/06/17 08:04:53;;;;;;;10.90;4.43;;;;;;;-143.84;42.67;44969.09;5109281;28;20430;-59
2023/06/17 08:07:20;;;;;;;6.77;3.43;;;;;;;-143.84;42.65;44976.72;5108603;28;20448;-59
2023/06/17 08:13:00;;;;;;;10.87;4.23;;;;;;;-143.84;43.53;44944.34;5108838;28;20479;-59
2023/06/17 08:15:51;;;;;;;18.00;11.33;;;;;;;-143.84;43.89;44984.31;5112368;28;20498;-59
2023/06/17 08:18:18;;;;;;;15.07;7.50;;;;;;;-143.84;43.93;44953.88;5112642;28;20812;-59
2023/06/17 08:20:53;;;;;;;6.27;4.60;;;;;;;-143.84;43.84;44942.44;5113191;28;20522;-59
2023/06/17 08:23:30;;;;;;;8.23;4.60;;;;;;;-143.84;43.18;44957.66;5113750;28;20446;-59
2023/06/17 08:26:03;;;;;;;42.20;29.97;;;;;;;-143.84;44.33;44948.16;5113489;28;20435;-59
2023/06/17 08:28:31;;;;;;;13.90;4.47;;;;;;;-143.84;44.47;44967.19;5113422;27;20538;-59
2023/06/17 08:31:10;;;;;;;8.43;4.40;;;;;;;-143.84;44.27;44948.16;5113149;28;20436;-59
2023/06/17 08:33:38;;;;;;;7.17;4.50;;;;;;;-143.84;44.38;44965.28;5113142;27;21018;-59
2023/06/17 08:36:05;;;;;;;12.53;4.50;;;;;;;-143.84;44.68;44946.25;5113145;28;20440;-59
2023/06/17 08:38:32;;;;;;;4.50;4.10;;;;;;;-143.84;45.01;44957.66;5113175;28;20435;-59
2023/06/17 08:40:59;;;;;;;13.50;8.20;;;;;;;-143.84;45.83;44967.19;5113054;27;20497;-59
2023/06/17 08:43:29;;;;;;;9.93;4.50;;;;;;;-143.84;44.04;44967.19;5113179;28;20986;-59
2023/06/17 08:46:37;;;;;;;11.73;5.30;;;;;;;-143.84;44.10;44931.00;5113253;28;20490;-59
2023/06/17 08:49:08;;;;;;;15.13;4.87;;;;;;;-143.84;42.83;44942.44;5029886;28;20447;-59
2023/06/17 08:52:05;;;;;;;19.33;8.00;;;;;;;-143.84;42.91;44938.63;5029850;28;20545;-59
2023/06/17 08:54:39;;;;;;;9.40;5.10;;;;;;;-143.84;43.51;44990.03;5112710;28;20483;-59
2023/06/17 08:57:14;;;;;;;11.83;4.17;;;;;;;-143.84;43.74;44980.53;5113028;28;20439;-59
2023/06/17 08:59:44;;;;;;;15.23;4.67;;;;;;;-143.84;43.75;44976.72;5112827;28;20445;-59
2023/06/17 09:02:15;;;;;;;10.97;4.00;;;;;;;-143.84;43.96;44976.72;5112959;28;21408;-59
2023/06/17 09:04:43;;;;;;;6.90;4.40;;;;;;;-143.84;43.70;44991.94;5112723;28;20450;-59
2023/06/17 09:07:10;;;;;;;10.90;4.93;;;;;;;-143.84;45.30;44978.63;5112486;28;20439;-59
2023/06/17 09:09:37;;;;;;;11.97;4.37;;;;;;;-143.84;44.65;44946.25;5112482;27;20439;-58
2023/06/17 09:12:06;;;;;;;10.40;5.07;;;;;;;-143.84;44.64;44971.00;5112259;28;20440;-59
2023/06/17 09:14:35;;;;;;;8.30;4.83;;;;;;;-143.84;44.86;44988.13;5112248;28;20521;-58
2023/06/17 09:17:02;;;;;;;7.73;4.40;;;;;;;-143.84;45.22;44957.66;5112309;28;20854;-58
2023/06/17 09:19:32;;;;;;;11.90;5.47;;;;;;;-143.84;45.14;44965.28;5112606;28;20613;-59
2023/06/17 09:22:06;;;;;;;10.63;5.30;;;;;;;-143.84;45.42;44978.63;5111923;27;20474;-59
2023/06/17 09:24:33;;;;;;;24.33;5.17;;;;;;;-143.84;45.69;44976.72;5112141;28;20930;-59
2023/06/17 09:27:31;;;;;;;;;;;;;;;;;;;;;
2023/06/17 09:30:09;;;;;;;6.40;4.40;;;;;;;-143.84;45.35;44969.09;5105080;28;20443;-59
2023/06/17 09:32:40;;;;;;;12.87;4.67;;;;;;;-143.84;45.04;44972.91;5111968;28;20450;-59
2023/06/17 09:35:14;;;;;;;13.73;4.60;;;;;;;-143.84;44.19;44988.13;5111831;28;20449;-59
2023/06/17 09:37:45;;;;;;;9.50;4.60;;;;;;;-143.84;44.04;44961.47;5112090;28;20519;-59
2023/06/17 09:40:13;;;;;;;14.53;4.57;;;;;;;-143.84;41.79;44927.19;5111951;28;20435;-59
2023/06/17 09:42:43;;;;;;;17.00;4.63;;;;;;;-143.84;41.51;44936.72;5111667;28;20538;-59
2023/06/17 09:45:12;;;;;;;7.17;3.90;;;;;;;-143.84;41.44;44950.06;5111806;28;20938;-59
2023/06/17 09:47:40;;;;;;;10.10;4.17;;;;;;;-143.84;41.57;44955.75;5111814;28;21126;-59
2023/06/17 09:50:11;;;;;;;9.80;4.07;;;;;;;-143.84;42.53;44955.75;5112037;28;20496;-59
2023/06/17 09:52:39;;;;;;;6.63;3.70;;;;;;;-143.84;42.77;44946.25;5111603;28;20458;-59
2023/06/17 09:55:09;;;;;;;8.20;3.53;;;;;;;-143.84;43.16;44984.31;5111717;28;20447;-59
2023/06/17 09:57:39;;;;;;;8.07;3.50;;;;;;;-143.84;42.19;44961.47;5111130;28;20945;-59
2023/06/17 10:00:12;;;;;;;7.10;3.97;;;;;;;-143.84;42.71;44953.88;5111438;28;20443;-59
2023/06/17 10:02:39;;;;;;;11.30;4.30;;;;;;;-143.84;42.78;44969.09;5111336;28;20921;-59
2023/06/17 10:05:10;;;;;;;6.57;3.80;;;;;;;-143.84;43.19;44927.19;5111311;28;20538;-59
2023/06/17 10:07:41;;;;;;;9.37;4.70;;;;;;;-143.84;42.70;44950.06;5111707;28;20447;-59
2023/06/17 10:10:10;;;;;;;10.33;4.10;;;;;;;-143.84;42.57;44929.09;5111378;28;20447;-59
2023/06/17 10:12:44;;;;;;;8.83;3.90;;;;;;;-143.84;41.97;44950.06;5111293;28;20439;-59
2023/06/17 10:15:12;;;;;;;9.50;4.20;;;;;;;-143.84;43.03;44948.16;5104015;28;21069;-59
2023/06/17 10:17:43;;;;;;;5.00;4.10;;;;;;;-143.84;42.83;44915.78;5090876;28;20490;-59
2023/06/17 10:20:18;;;;;;;5.27;3.30;;;;;;;-143.84;42.82;44948.16;5090377;28;20451;-59
2023/06/17 10:22:50;;;;;;;7.93;4.27;;;;;;;-143.84;42.95;44959.56;5090848;28;20506;-59
2023/06/17 10:25:17;;;;;;;6.10;4.00;;;;;;;-143.84;43.72;44990.03;5090665;28;20528;-58
2023/06/17 10:27:45;;;;;;;11.03;3.70;;;;;;;-143.84;44.48;44950.06;5090605;28;20989;-59
2023/06/17 10:30:25;;;;;;;10.97;3.80;;;;;;;-143.84;42.99;44955.75;5090633;28;20868;-59
2023/06/17 10:32:57;;;;;;;9.60;3.90;;;;;;;-143.84;43.79;44980.53;5090317;28;20523;-58
2023/06/17 10:35:25;;;;;;;8.70;4.10;;;;;;;-143.84;43.97;44974.81;5089881;28;20443;-59
2023/06/17 10:37:53;;;;;;;15.00;3.97;;;;;;;-143.84;43.83;44969.09;5090433;28;20833;-59
2023/06/17 10:40:23;;;;;;;10.00;4.50;;;;;;;-143.84;43.64;45005.28;5090221;28;20452;-59
2023/06/17 10:43:17;;;;;;;5.60;3.70;;;;;;;-143.84;44.60;44999.56;5090401;28;20439;-59
2023/06/17 10:45:52;;;;;;;7.33;4.37;;;;;;;-143.84;44.56;44974.81;5090315;28;20520;-59
2023/06/17 10:48:23;;;;;;;9.70;4.50;;;;;;;-143.84;44.32;44978.63;5090457;28;20439;-59
2023/06/17 10:50:56;;;;;;;10.97;3.73;;;;;;;-143.84;44.58;44986.22;5090059;28;20443;-59
2023/06/17 10:53:29;;;;;;;14.60;4.43;;;;;;;-143.84;45.24;44991.94;5090130;28;20923;-59
2023/06/17 10:55:57;;;;;;;10.20;5.10;;;;;;;-143.84;44.96;44942.44;5090215;28;20436;-58
2023/06/17 10:58:31;;;;;;;17.10;4.63;;;;;;;-143.84;44.87;44980.53;5090450;28;20435;-58
2023/06/17 11:01:03;;;;;;;11.63;4.87;;;;;;;-143.84;45.15;44999.56;5089965;28;20523;-59
2023/06/17 11:03:30;;;;;;;6.10;4.27;;;;;;;-143.84;45.71;44991.94;5089901;28;20433;-59
2023/06/17 11:06:02;;;;;;;7.93;5.23;;;;;;;-143.84;46.81;44974.81;5089843;28;20866;-59
2023/06/17 11:08:32;;;;;;;9.57;4.20;;;;;;;-143.84;45.43;44980.53;5089560;28;20436;-59
2023/06/17 11:11:09;;;;;;;8.57;4.50;;;;;;;-143.84;45.35;44991.94;5090071;28;20456;-59
2023/06/17 11:13:38;;;;;;;10.50;4.20;;;;;;;-143.84;46.15;44988.13;5089659;28;20479;-58
2023/06/17 11:16:05;;;;;;;14.80;4.33;;;;;;;-143.84;46.35;44965.28;5089682;28;20480;-59
2023/06/17 11:18:36;;;;;;;8.20;4.17;;;;;;;-143.84;45.91;44972.91;5089650;28;20488;-58
2023/06/17 11:21:05;;;;;;;10.20;4.60;;;;;;;-143.84;46.04;44982.41;5089555;28;20522;-58
2023/06/17 11:23:38;;;;;;;11.60;4.13;;;;;;;-143.84;46.57;44963.38;5089388;28;20897;-58
2023/06/17 11:26:07;;;;;;;10.40;4.10;;;;;;;-143.84;46.95;44974.81;5089414;28;20444;-58
2023/06/17 11:28:35;;;;;;;5.73;4.33;;;;;;;-143.84;48.66;44980.53;5089452;28;20517;-58